TOON weather

Toonumbar Dam Helipad
New South Wales, Australia

Public forecast

Using degrees Celsius for public forecast. Weather courtesy of forecast.io.

Closest aviation weather report (METAR) to Toonumbar Dam Helipad

Closest report is Casino Airport, 21.4 nm (39.7 km) SE. Retrieved 2020/02/21 04:00 UTC (1 hour ago):

YCAS 210400Z AUTO 10011KT //// // ////// 29/19 Q1013

Closest aviation forecast (TAF) to Toonumbar Dam Helipad

Forecast is more than 6 hours old.

Closest forecast is Gold Coast Airport, 46.4 nm (86.0 km) NE. Retrieved 2020/02/20 18:00 UTC (11 hours ago):

TAF YBCG 201706Z 2018/2118 21006KT 9999 -SHRA SCT025 BKN040 FM202300 12012KT 9999 -SHRA SCT030 BKN045 FM211000 20007KT 9999 NSW SCT030